createdAt,value
2019-03-15T00:02:00.118Z,99158.62
2019-03-15T00:04:28.386Z,99168.63
2019-03-15T00:06:56.639Z,99161.39
2019-03-15T00:09:24.901Z,99173.06
2019-03-15T00:11:53.151Z,99167.97
2019-03-15T00:14:21.407Z,99160.19
2019-03-15T00:16:49.670Z,99171.66
2019-03-15T00:19:17.925Z,99172.77
2019-03-15T00:21:46.175Z,99181.11
2019-03-15T00:24:14.431Z,99184.14
2019-03-15T00:26:42.681Z,99190.55
2019-03-15T00:29:10.935Z,99197.57
2019-03-15T00:31:39.184Z,99199.30
2019-03-15T00:34:07.443Z,99201.89
2019-03-15T00:36:35.698Z,99203.28
2019-03-15T00:42:23.863Z,99202.03
2019-03-15T00:44:52.124Z,99208.60
2019-03-15T00:47:20.394Z,99211.66
2019-03-15T00:49:48.709Z,99209.98
2019-03-15T00:52:16.967Z,99223.10
2019-03-15T00:54:45.222Z,99221.47
2019-03-15T00:57:13.493Z,99229.41
2019-03-15T00:59:41.745Z,99242.81
2019-03-15T01:02:11.438Z,99229.95
2019-03-15T01:04:40.420Z,99222.09
2019-03-15T01:07:08.672Z,99247.37
2019-03-15T01:09:36.961Z,99251.14
2019-03-15T01:12:05.213Z,99250.89
2019-03-15T01:14:33.492Z,99244.88
2019-03-15T01:17:01.741Z,99263.09
2019-03-15T01:19:29.995Z,99276.72
2019-03-15T01:21:58.247Z,99269.15
2019-03-15T01:24:26.509Z,99263.30
2019-03-15T01:26:54.782Z,99274.80
2019-03-15T01:29:23.030Z,99266.02
2019-03-15T01:31:51.304Z,99262.34
2019-03-15T01:34:19.566Z,99269.08
2019-03-15T01:36:47.823Z,99276.21
2019-03-15T01:39:16.064Z,99287.42
2019-03-15T01:41:44.329Z,99279.44
2019-03-15T01:44:12.572Z,99297.50
2019-03-15T01:46:40.838Z,99293.64
2019-03-15T01:49:09.111Z,99300.59
2019-03-15T01:51:37.340Z,99312.34
2019-03-15T01:54:05.587Z,99317.52
2019-03-15T01:56:33.856Z,99323.41
2019-03-15T01:59:02.113Z,99320.19
2019-03-15T02:01:30.893Z,99335.28
2019-03-15T02:04:00.362Z,99330.73
2019-03-15T02:06:28.629Z,99322.41
2019-03-15T02:08:56.874Z,99329.73
2019-03-15T02:11:25.139Z,99320.78
2019-03-15T02:13:53.390Z,99330.05
2019-03-15T02:16:21.646Z,99339.38
2019-03-15T02:18:49.921Z,99351.88
2019-03-15T02:21:18.542Z,99354.23
2019-03-15T02:23:48.493Z,99330.77
2019-03-15T02:26:30.678Z,99352.26
2019-03-15T02:28:58.915Z,99352.26
2019-03-15T02:31:27.177Z,99355.77
2019-03-15T02:33:55.445Z,99351.42
2019-03-15T02:36:23.692Z,99354.77
2019-03-15T02:38:51.929Z,99354.48
2019-03-15T02:41:20.212Z,99355.23
2019-03-15T02:43:48.468Z,99357.06
2019-03-15T02:46:16.726Z,99360.13
2019-03-15T02:48:44.974Z,99367.35
2019-03-15T02:51:13.231Z,99363.17
2019-03-15T02:53:41.499Z,99362.17
2019-03-15T02:56:09.759Z,99371.16
2019-03-15T02:58:38.002Z,99376.59
2019-03-15T03:01:07.637Z,99384.91
2019-03-15T03:03:36.219Z,99393.44
2019-03-15T03:06:04.471Z,99390.01
2019-03-15T03:08:32.721Z,99388.63
2019-03-15T03:11:00.987Z,99396.57
2019-03-15T03:13:29.249Z,99393.52
2019-03-15T03:15:57.519Z,99388.71
2019-03-15T03:18:25.803Z,99393.81
2019-03-15T03:20:54.033Z,99400.75
2019-03-15T03:23:22.273Z,99408.74
2019-03-15T03:25:50.537Z,99408.45
2019-03-15T03:28:18.781Z,99410.50
2019-03-15T03:30:47.289Z,99409.83
2019-03-15T03:33:17.041Z,99411.20
2019-03-15T03:35:45.302Z,99405.56
2019-03-15T03:38:13.559Z,99413.87
2019-03-15T03:40:41.814Z,99418.60
2019-03-15T03:43:10.354Z,99408.66
2019-03-15T03:45:38.632Z,99420.11
2019-03-15T03:48:06.885Z,99411.74
2019-03-15T03:50:35.145Z,99412.83
2019-03-15T03:53:03.411Z,99407.94
2019-03-15T03:55:31.676Z,99407.86
2019-03-15T03:57:59.937Z,99413.87
2019-03-15T04:00:28.358Z,99410.37
2019-03-15T04:02:56.632Z,99415.02
2019-03-15T04:05:25.198Z,99422.73
2019-03-15T04:07:53.461Z,99423.63
2019-03-15T04:10:21.717Z,99428.67
2019-03-15T04:12:49.977Z,99434.09
2019-03-15T04:15:18.251Z,99419.61
2019-03-15T04:17:46.567Z,99429.73
2019-03-15T04:20:14.763Z,99429.73
2019-03-15T04:22:43.027Z,99431.70
2019-03-15T04:25:11.350Z,99438.55
2019-03-15T04:27:39.614Z,99443.36
2019-03-15T04:30:39.183Z,99445.30
2019-03-15T04:33:07.429Z,99448.35
2019-03-15T04:35:35.699Z,99448.70
2019-03-15T04:38:03.962Z,99456.55
2019-03-15T04:40:32.227Z,99453.28
2019-03-15T04:43:00.498Z,99466.47
2019-03-15T04:45:28.743Z,99465.09
2019-03-15T04:47:57.001Z,99458.99
2019-03-15T04:50:25.287Z,99463.80
2019-03-15T04:52:53.614Z,99465.09
2019-03-15T04:55:21.884Z,99465.09
2019-03-15T04:57:50.149Z,99465.55
2019-03-15T05:00:18.397Z,99468.44
2019-03-15T05:02:46.682Z,99475.75
2019-03-15T05:05:14.952Z,99476.41
2019-03-15T05:07:43.210Z,99473.16
2019-03-15T05:10:11.471Z,99473.92
2019-03-15T05:12:39.757Z,99469.47
2019-03-15T05:15:39.928Z,99470.52
2019-03-15T05:18:08.200Z,99470.12
2019-03-15T05:20:36.462Z,99468.53
2019-03-15T05:23:04.726Z,99473.17
2019-03-15T05:25:33.003Z,99480.11
2019-03-15T05:28:01.264Z,99478.03
2019-03-15T05:30:29.535Z,99478.03
2019-03-15T05:32:57.799Z,99480.81
2019-03-15T05:35:26.090Z,99486.21
2019-03-15T05:37:54.345Z,99482.92
2019-03-15T05:40:22.629Z,99476.27
2019-03-15T05:42:50.902Z,99481.00
2019-03-15T05:45:19.152Z,99473.59
2019-03-15T05:47:47.432Z,99479.24
2019-03-15T05:50:15.971Z,99479.33
2019-03-15T05:52:44.213Z,99486.94
2019-03-15T05:55:43.721Z,99484.98
2019-03-15T05:58:11.991Z,99477.59
2019-03-15T06:00:40.300Z,99484.53
2019-03-15T06:03:08.584Z,99486.83
2019-03-15T06:05:36.841Z,99480.64
2019-03-15T06:08:05.183Z,99472.86
2019-03-15T06:10:33.448Z,99474.08
2019-03-15T06:13:01.700Z,99470.55
2019-03-15T06:15:29.982Z,99478.70
2019-03-15T06:17:58.255Z,99470.80
2019-03-15T06:20:26.527Z,99468.49
2019-03-15T06:22:54.813Z,99475.08
2019-03-15T06:25:23.081Z,99473.41
2019-03-15T06:27:51.408Z,99465.83
2019-03-15T06:30:19.632Z,99475.08
2019-03-15T06:32:47.998Z,99473.52
2019-03-15T06:35:16.259Z,99473.08
2019-03-15T06:37:44.536Z,99481.48
2019-03-15T06:40:13.798Z,99486.12
2019-03-15T06:42:42.853Z,99478.93
2019-03-15T06:45:51.143Z,99478.64
2019-03-15T06:48:19.406Z,99473.75
2019-03-15T06:50:47.677Z,99465.75
2019-03-15T06:53:15.946Z,99475.91
2019-03-15T06:55:44.214Z,99481.02
2019-03-15T06:58:12.462Z,99485.50
2019-03-15T07:00:40.727Z,99483.45
2019-03-15T07:03:09.008Z,99481.98
2019-03-15T07:05:37.285Z,99478.88
2019-03-15T07:08:05.562Z,99496.50
2019-03-15T07:10:33.838Z,99498.04
2019-03-15T07:13:02.095Z,99484.07
2019-03-15T07:15:30.350Z,99476.29
2019-03-15T07:17:58.636Z,99475.16
2019-03-15T07:20:26.902Z,99475.27
2019-03-15T07:22:55.176Z,99473.98
2019-03-15T07:25:34.673Z,99478.13
2019-03-15T07:28:02.947Z,99476.97
2019-03-15T07:30:31.179Z,99472.56
2019-03-15T07:32:59.441Z,99471.31
2019-03-15T07:35:27.706Z,99462.69
2019-03-15T07:37:55.962Z,99470.31
2019-03-15T07:40:24.231Z,99469.73
2019-03-15T07:42:52.489Z,99458.27
2019-03-15T07:45:20.760Z,99453.54
2019-03-15T07:47:49.013Z,99453.16
2019-03-15T07:50:17.286Z,99452.24
2019-03-15T07:52:45.560Z,99445.67
2019-03-15T07:55:13.829Z,99445.88
2019-03-15T07:57:42.102Z,99439.11
2019-03-15T08:00:41.931Z,99433.49
2019-03-15T08:03:10.216Z,99422.36
2019-03-15T08:05:38.467Z,99422.45
2019-03-15T08:08:06.752Z,99435.50
2019-03-15T08:10:35.019Z,99430.77
2019-03-15T08:13:03.277Z,99428.77
2019-03-15T08:15:31.546Z,99424.03
2019-03-15T08:17:59.822Z,99419.97
2019-03-15T08:20:28.062Z,99427.00
2019-03-15T08:22:56.413Z,99429.22
2019-03-15T08:25:24.654Z,99420.27
2019-03-15T08:27:52.905Z,99425.28
2019-03-15T08:30:21.342Z,99417.61
2019-03-15T08:32:49.598Z,99421.95
2019-03-15T08:35:37.245Z,99417.34
2019-03-15T08:38:05.605Z,99417.34
2019-03-15T08:40:33.861Z,99418.67
2019-03-15T08:43:14.954Z,99421.73
2019-03-15T08:45:43.212Z,99427.95
2019-03-15T08:48:11.492Z,99419.24
2019-03-15T08:50:39.772Z,99422.67
2019-03-15T08:53:08.060Z,99420.82
2019-03-15T08:55:39.611Z,99423.69
2019-03-15T08:58:13.831Z,99414.03
2019-03-15T09:00:36.321Z,99413.13
2019-03-15T09:03:04.594Z,99415.44
2019-03-15T09:05:32.869Z,99406.15
2019-03-15T09:08:01.153Z,99407.09
2019-03-15T09:10:29.427Z,99404.95
2019-03-15T09:12:57.759Z,99395.01
2019-03-15T09:15:26.014Z,99391.67
2019-03-15T09:17:54.273Z,99392.58
2019-03-15T09:20:22.543Z,99380.22
2019-03-15T09:22:51.464Z,99381.80
2019-03-15T09:25:20.900Z,99365.15
2019-03-15T09:27:49.793Z,99354.92
2019-03-15T09:30:49.232Z,99338.11
2019-03-15T09:33:17.491Z,99335.75
2019-03-15T09:35:45.753Z,99366.30
2019-03-15T09:38:14.015Z,99354.38
2019-03-15T09:40:42.269Z,99340.67
2019-03-15T09:43:10.539Z,99340.91
2019-03-15T09:45:38.821Z,99320.10
2019-03-15T09:48:07.098Z,99324.09
2019-03-15T09:50:50.168Z,99336.91
2019-03-15T09:53:06.133Z,99329.48
2019-03-15T09:55:35.322Z,99323.44
2019-03-15T09:58:03.597Z,99301.91
2019-03-15T10:00:31.871Z,99283.61
2019-03-15T10:03:00.151Z,99258.78
2019-03-15T10:05:28.402Z,99252.00
2019-03-15T10:07:56.673Z,99252.54
2019-03-15T10:10:24.961Z,99240.25
2019-03-15T10:13:05.084Z,99226.45
2019-03-15T10:15:26.169Z,99221.61
2019-03-15T10:17:53.189Z,99218.44
2019-03-15T10:20:21.460Z,99218.13
2019-03-15T10:23:04.715Z,99216.92
2019-03-15T10:25:19.791Z,99210.17
2019-03-15T10:27:48.054Z,99201.31
2019-03-15T10:30:48.217Z,99203.08
2019-03-15T10:33:16.445Z,99196.21
2019-03-15T10:35:44.705Z,99191.48
2019-03-15T10:38:12.972Z,99174.94
2019-03-15T10:40:41.224Z,99168.30
2019-03-15T10:43:09.484Z,99166.84
2019-03-15T10:45:37.739Z,99150.40
2019-03-15T10:48:08.075Z,99146.03
2019-03-15T10:50:35.980Z,99149.11
2019-03-15T10:53:04.247Z,99135.13
2019-03-15T10:55:32.511Z,99124.80
2019-03-15T10:58:00.760Z,99121.00
2019-03-15T11:00:29.207Z,99115.95
2019-03-15T11:02:57.462Z,99111.21
2019-03-15T11:05:25.717Z,99103.38
2019-03-15T11:07:53.976Z,99095.78
2019-03-15T11:10:22.230Z,99088.09
2019-03-15T11:12:50.729Z,99077.85
2019-03-15T11:15:18.992Z,99079.39
2019-03-15T11:17:47.261Z,99076.99
2019-03-15T11:20:15.515Z,99068.63
2019-03-15T11:22:43.789Z,99052.47
2019-03-15T11:25:43.187Z,99050.40
2019-03-15T11:28:11.446Z,99032.16
2019-03-15T11:30:39.704Z,99041.91
2019-03-15T11:33:08.048Z,99023.52
2019-03-15T11:35:36.312Z,99018.43
2019-03-15T11:38:04.592Z,99000.85
2019-03-15T11:40:32.867Z,98991.03
2019-03-15T11:43:01.139Z,98987.20
2019-03-15T11:45:29.441Z,98985.47
2019-03-15T11:48:03.848Z,98983.23
2019-03-15T11:50:28.536Z,98975.08
2019-03-15T11:52:56.806Z,98955.34
2019-03-15T11:55:25.089Z,98963.13
2019-03-15T11:57:53.375Z,98939.55
2019-03-15T12:00:21.640Z,98949.11
2019-03-15T12:02:49.907Z,98939.19
2019-03-15T12:05:18.254Z,98936.66
2019-03-15T12:07:46.536Z,98928.23
2019-03-15T12:10:34.143Z,98913.31
2019-03-15T12:13:02.392Z,98899.50
2019-03-15T12:15:30.670Z,98909.03
2019-03-15T12:17:58.937Z,98905.39
2019-03-15T12:20:27.203Z,98894.30
2019-03-15T12:22:55.462Z,98875.55
2019-03-15T12:25:23.730Z,98875.64
2019-03-15T12:27:52.010Z,98871.53
2019-03-15T12:30:20.282Z,98878.96
2019-03-15T12:32:48.558Z,98857.73
2019-03-15T12:35:16.982Z,98862.94
2019-03-15T12:37:45.255Z,98854.83
2019-03-15T12:40:32.872Z,98849.34
2019-03-15T12:43:01.131Z,98849.84
2019-03-15T12:45:29.394Z,98855.53
2019-03-15T12:47:57.653Z,98840.56
2019-03-15T12:50:25.903Z,98828.44
2019-03-15T12:52:54.175Z,98827.05
2019-03-15T12:55:22.427Z,98826.63
2019-03-15T12:57:50.684Z,98822.41
2019-03-15T13:00:50.370Z,98825.05
2019-03-15T13:03:18.619Z,98834.72
2019-03-15T13:05:46.880Z,98826.75
2019-03-15T13:08:15.139Z,98822.88
2019-03-15T13:10:43.397Z,98810.36
2019-03-15T13:13:11.649Z,98806.95
2019-03-15T13:15:39.915Z,98807.45
2019-03-15T13:18:08.189Z,98807.13
2019-03-15T13:20:36.443Z,98794.34
2019-03-15T13:23:04.700Z,98809.14
2019-03-15T13:25:32.969Z,98781.66
2019-03-15T13:28:01.229Z,98798.72
2019-03-15T13:30:29.493Z,98802.98
2019-03-15T13:32:57.753Z,98804.63
2019-03-15T13:35:26.006Z,98791.88
2019-03-15T13:37:54.271Z,98794.39
2019-03-15T13:40:22.534Z,98796.78
2019-03-15T13:42:50.862Z,98800.80
2019-03-15T13:45:19.058Z,98794.39
2019-03-15T13:47:47.301Z,98799.48
2019-03-15T13:50:34.894Z,98804.81
2019-03-15T13:53:03.140Z,98795.20
2019-03-15T13:55:31.420Z,98797.92
2019-03-15T13:57:59.661Z,98803.73
2019-03-15T14:00:27.926Z,98802.39
2019-03-15T14:02:56.196Z,98811.75
2019-03-15T14:05:24.458Z,98778.56
2019-03-15T14:08:12.333Z,98792.42
2019-03-15T14:10:49.181Z,98792.42
2019-03-15T14:13:12.265Z,98808.73
2019-03-15T14:15:40.611Z,98817.78
2019-03-15T14:18:08.871Z,98821.76
2019-03-15T14:20:37.120Z,98816.42
2019-03-15T14:23:05.366Z,98825.33
2019-03-15T14:25:33.617Z,98812.06
2019-03-15T14:28:01.881Z,98812.90
2019-03-15T14:30:30.136Z,98830.83
2019-03-15T14:32:58.382Z,98828.35
2019-03-15T14:35:26.646Z,98853.73
2019-03-15T14:37:54.890Z,98852.07
2019-03-15T14:40:23.242Z,98860.26
2019-03-15T14:42:51.497Z,98851.41
2019-03-15T14:45:19.756Z,98857.33
2019-03-15T14:48:00.630Z,98856.98
2019-03-15T14:50:28.892Z,98856.98
2019-03-15T14:52:57.185Z,98844.88
2019-03-15T14:55:25.390Z,98844.52
2019-03-15T14:57:53.792Z,98837.53
2019-03-15T15:00:21.997Z,98845.59
2019-03-15T15:02:50.262Z,98853.42
2019-03-15T15:05:18.513Z,98843.83
2019-03-15T15:07:46.763Z,98859.47
2019-03-15T15:10:55.054Z,98853.78
2019-03-15T15:13:23.329Z,98867.65
2019-03-15T15:15:51.597Z,98869.78
2019-03-15T15:18:19.844Z,98871.00
2019-03-15T15:20:48.126Z,98864.84
2019-03-15T15:23:16.440Z,98869.10
2019-03-15T15:25:44.690Z,98875.38
2019-03-15T15:28:12.962Z,98885.69
2019-03-15T15:30:41.245Z,98866.84
2019-03-15T15:33:09.541Z,98878.37
2019-03-15T15:35:37.785Z,98844.01
2019-03-15T15:38:06.051Z,98853.72
2019-03-15T15:40:34.351Z,98881.32
2019-03-15T15:43:02.620Z,98877.17
2019-03-15T15:45:30.869Z,98906.89
2019-03-15T15:47:59.151Z,98884.30
2019-03-15T15:50:27.408Z,98886.77
2019-03-15T15:52:55.679Z,98887.36
2019-03-15T15:55:23.932Z,98904.41
2019-03-15T15:57:52.183Z,98914.59
2019-03-15T16:00:20.467Z,98904.64
2019-03-15T16:02:48.718Z,98887.47
2019-03-15T16:05:16.972Z,98898.95
2019-03-15T16:07:45.222Z,98903.09
2019-03-15T16:10:44.634Z,98889.23
2019-03-15T16:13:17.416Z,98881.28
2019-03-15T16:15:42.838Z,98918.94
2019-03-15T16:18:11.094Z,98910.05
2019-03-15T16:20:39.351Z,98926.37
2019-03-15T16:23:07.610Z,98916.65
2019-03-15T16:25:35.880Z,98919.14
2019-03-15T16:28:04.139Z,98940.02
2019-03-15T16:30:32.416Z,98921.70
2019-03-15T16:33:00.676Z,98928.67
2019-03-15T16:35:28.930Z,98919.89
2019-03-15T16:37:57.193Z,98929.23
2019-03-15T16:40:25.468Z,98937.12
2019-03-15T16:42:53.767Z,98942.43
2019-03-15T16:45:41.610Z,98959.95
2019-03-15T16:48:09.872Z,98949.98
2019-03-15T16:50:38.155Z,98945.61
2019-03-15T16:53:06.403Z,98954.94
2019-03-15T16:55:34.676Z,98946.41
2019-03-15T16:58:02.916Z,98950.78
2019-03-15T17:00:31.189Z,98939.86
2019-03-15T17:02:59.479Z,98940.38
2019-03-15T17:05:27.832Z,98960.57
2019-03-15T17:07:56.062Z,98958.33
2019-03-15T17:10:24.331Z,98960.05
2019-03-15T17:12:55.573Z,98967.39
2019-03-15T17:15:41.945Z,98972.34
2019-03-15T17:18:10.200Z,98992.43
2019-03-15T17:20:38.471Z,98987.80
2019-03-15T17:23:06.747Z,98986.39
2019-03-15T17:25:35.010Z,98995.92
2019-03-15T17:28:03.271Z,99001.11
2019-03-15T17:30:50.660Z,99013.17
2019-03-15T17:33:18.949Z,98999.70
2019-03-15T17:35:47.200Z,99013.07
2019-03-15T17:38:15.462Z,99051.45
2019-03-15T17:40:43.712Z,99072.66
2019-03-15T17:43:11.975Z,99050.83
2019-03-15T17:45:40.226Z,99048.82
2019-03-15T17:48:08.495Z,99068.19
2019-03-15T17:50:36.745Z,99074.98
2019-03-15T17:53:05.002Z,99055.92
2019-03-15T17:55:33.269Z,99069.52
2019-03-15T17:58:01.533Z,99055.95
2019-03-15T18:01:01.137Z,99065.98
2019-03-15T18:03:29.406Z,99063.75
2019-03-15T18:05:57.659Z,99073.58
2019-03-15T18:08:25.911Z,99079.25
2019-03-15T18:10:54.160Z,99074.61
2019-03-15T18:13:22.416Z,99081.31
2019-03-15T18:15:50.686Z,99076.38
2019-03-15T18:18:18.960Z,99078.05
2019-03-15T18:20:47.201Z,99102.95
2019-03-15T18:23:15.465Z,99110.61
2019-03-15T18:25:43.731Z,99107.08
2019-03-15T18:28:11.991Z,99098.08
2019-03-15T18:30:40.269Z,99107.08
2019-03-15T18:33:08.533Z,99098.28
2019-03-15T18:35:36.797Z,99135.80
2019-03-15T18:38:05.069Z,99120.51
2019-03-15T18:40:33.335Z,99121.91
2019-03-15T18:43:01.592Z,99127.77
2019-03-15T18:45:29.841Z,99131.80
2019-03-15T18:47:58.109Z,99130.44
2019-03-15T18:53:46.217Z,99137.40
2019-03-15T18:56:14.492Z,99158.86
2019-03-15T18:58:42.764Z,99136.39
2019-03-15T19:01:11.043Z,99170.55
2019-03-15T19:03:39.478Z,99171.84
2019-03-15T19:06:07.752Z,99175.75
2019-03-15T19:08:36.020Z,99166.14
2019-03-15T19:11:04.281Z,99176.68
2019-03-15T19:13:32.539Z,99172.48
2019-03-15T19:16:00.792Z,99167.39
2019-03-15T19:18:29.054Z,99170.65
2019-03-15T19:20:57.361Z,99173.11
2019-03-15T19:23:25.625Z,99188.05
2019-03-15T19:25:53.897Z,99180.73
2019-03-15T19:28:22.162Z,99189.18
2019-03-15T19:30:50.434Z,99195.77
2019-03-15T19:33:18.713Z,99223.25
2019-03-15T19:35:47.029Z,99229.28
2019-03-15T19:38:15.312Z,99209.64
2019-03-15T19:40:43.623Z,99222.87
2019-03-15T19:43:11.904Z,99225.84
2019-03-15T19:45:40.221Z,99248.91
2019-03-15T19:48:08.510Z,99263.97
2019-03-15T19:50:36.818Z,99274.42
2019-03-15T19:53:05.128Z,99258.00
2019-03-15T19:55:33.445Z,99258.65
2019-03-15T19:58:01.840Z,99259.48
2019-03-15T20:00:30.134Z,99255.03
2019-03-15T20:02:58.459Z,99263.75
2019-03-15T20:05:26.774Z,99256.79
2019-03-15T20:07:55.089Z,99265.60
2019-03-15T20:10:23.411Z,99274.41
2019-03-15T20:12:51.720Z,99262.73
2019-03-15T20:15:20.029Z,99288.33
2019-03-15T20:17:48.353Z,99281.84
2019-03-15T20:23:38.893Z,99302.43
2019-03-15T20:26:07.212Z,99311.43
2019-03-15T20:28:35.609Z,99314.33
2019-03-15T20:31:03.929Z,99332.70
2019-03-15T20:33:32.234Z,99308.30
2019-03-15T20:36:00.542Z,99308.58
2019-03-15T20:41:49.419Z,99326.20
2019-03-15T20:44:27.800Z,99334.66
2019-03-15T20:46:47.770Z,99341.98
2019-03-15T20:49:16.042Z,99350.14
2019-03-15T20:51:44.353Z,99353.20
2019-03-15T20:54:12.643Z,99356.42
2019-03-15T20:56:40.958Z,99339.73
2019-03-15T20:59:09.279Z,99363.48
2019-03-15T21:01:37.894Z,99358.11
2019-03-15T21:04:06.193Z,99355.14
2019-03-15T21:06:34.447Z,99364.69
2019-03-15T21:09:02.789Z,99374.97
2019-03-15T21:11:31.076Z,99378.49
2019-03-15T21:13:59.379Z,99374.13
2019-03-15T21:16:27.638Z,99391.48
2019-03-15T21:18:55.913Z,99402.41
2019-03-15T21:21:24.198Z,99389.09
2019-03-15T21:23:52.457Z,99411.41
2019-03-15T21:26:20.722Z,99409.02
2019-03-15T21:28:48.986Z,99406.05
2019-03-15T21:31:17.254Z,99416.79
2019-03-15T21:33:45.512Z,99413.55
2019-03-15T21:36:13.777Z,99417.91
2019-03-15T21:38:48.073Z,99425.44
2019-03-15T21:41:12.019Z,99437.92
2019-03-15T21:43:40.271Z,99445.84
2019-03-15T21:46:08.555Z,99439.23
2019-03-15T21:48:36.816Z,99439.14
2019-03-15T21:51:05.097Z,99461.13
2019-03-15T21:53:33.345Z,99467.50
2019-03-15T21:56:01.606Z,99479.39
2019-03-15T21:58:29.878Z,99480.77
2019-03-15T22:01:02.580Z,99488.17
2019-03-15T22:03:28.124Z,99486.80
2019-03-15T22:09:15.288Z,99488.47
2019-03-15T22:11:43.580Z,99495.34
2019-03-15T22:14:11.834Z,99496.84
2019-03-15T22:16:40.092Z,99502.95
2019-03-15T22:19:08.356Z,99511.59
2019-03-15T22:21:36.602Z,99513.60
2019-03-15T22:26:53.821Z,99523.03
2019-03-15T22:29:22.082Z,99521.10
2019-03-15T22:31:50.345Z,99529.09
2019-03-15T22:34:18.612Z,99521.22
2019-03-15T22:36:46.881Z,99524.83
2019-03-15T22:39:15.142Z,99528.27
2019-03-15T22:41:43.486Z,99531.70
2019-03-15T22:44:11.741Z,99529.22
2019-03-15T22:49:48.070Z,99545.46
2019-03-15T22:52:16.333Z,99553.05
2019-03-15T22:54:44.603Z,99553.05
2019-03-15T22:57:12.867Z,99548.69
2019-03-15T22:59:41.120Z,99540.44
2019-03-15T23:02:09.384Z,99544.34
2019-03-15T23:04:37.646Z,99548.41
2019-03-15T23:07:05.908Z,99559.00
2019-03-15T23:09:34.164Z,99548.20
2019-03-15T23:12:02.429Z,99557.49
2019-03-15T23:14:30.683Z,99552.30
2019-03-15T23:20:44.055Z,99576.59
2019-03-15T23:23:23.241Z,99605.50
2019-03-15T23:25:42.296Z,99613.85
2019-03-15T23:30:57.859Z,99614.26
2019-03-15T23:33:26.107Z,99626.95
2019-03-15T23:35:54.594Z,99622.00
2019-03-15T23:38:22.847Z,99620.63
2019-03-15T23:40:51.105Z,99623.45
2019-03-15T23:43:19.443Z,99622.77
2019-03-15T23:45:47.715Z,99621.42
2019-03-15T23:48:15.975Z,99632.94
2019-03-15T23:50:44.231Z,99636.98
2019-03-15T23:53:31.828Z,99649.26
2019-03-15T23:56:00.081Z,99648.38
2019-03-15T23:58:28.332Z,99636.58
